sensor_id;sensor_type;location;lat;lon;timestamp;P1;durP1;ratioP1;P2;durP2;ratioP2
21987;SDS011;11158;53.404;-1.510;2022-10-13T00:01:17;8.05;;;3.28;;
21987;SDS011;11158;53.404;-1.510;2022-10-13T00:03:44;7.45;;;3.55;;
21987;SDS011;11158;53.404;-1.510;2022-10-13T00:06:12;9.50;;;3.03;;
21987;SDS011;11158;53.404;-1.510;2022-10-13T00:08:39;11.13;;;3.70;;
21987;SDS011;11158;53.404;-1.510;2022-10-13T00:11:11;9.60;;;3.28;;
21987;SDS011;11158;53.404;-1.510;2022-10-13T00:13:42;8.68;;;3.33;;
21987;SDS011;11158;53.404;-1.510;2022-10-13T00:16:10;8.52;;;3.60;;
21987;SDS011;11158;53.404;-1.510;2022-10-13T00:18:38;7.22;;;2.88;;
21987;SDS011;11158;53.404;-1.510;2022-10-13T00:21:08;8.27;;;3.10;;
21987;SDS011;11158;53.404;-1.510;2022-10-13T00:23:35;13.07;;;3.13;;
21987;SDS011;11158;53.404;-1.510;2022-10-13T00:26:03;8.82;;;3.70;;
21987;SDS011;11158;53.404;-1.510;2022-10-13T00:28:30;7.50;;;2.90;;
21987;SDS011;11158;53.404;-1.510;2022-10-13T00:30:55;6.13;;;2.85;;
21987;SDS011;11158;53.404;-1.510;2022-10-13T00:33:21;7.00;;;2.75;;
21987;SDS011;11158;53.404;-1.510;2022-10-13T00:35:47;8.02;;;2.92;;
21987;SDS011;11158;53.404;-1.510;2022-10-13T00:38:17;6.85;;;2.70;;
21987;SDS011;11158;53.404;-1.510;2022-10-13T00:40:45;8.48;;;3.20;;
21987;SDS011;11158;53.404;-1.510;2022-10-13T00:43:14;11.13;;;3.28;;
21987;SDS011;11158;53.404;-1.510;2022-10-13T00:45:42;8.00;;;3.00;;
21987;SDS011;11158;53.404;-1.510;2022-10-13T00:48:08;7.90;;;3.05;;
21987;SDS011;11158;53.404;-1.510;2022-10-13T00:50:38;8.20;;;3.38;;
21987;SDS011;11158;53.404;-1.510;2022-10-13T00:53:06;7.95;;;3.38;;
21987;SDS011;11158;53.404;-1.510;2022-10-13T00:55:34;9.55;;;3.47;;
21987;SDS011;11158;53.404;-1.510;2022-10-13T00:58:03;5.78;;;3.13;;
21987;SDS011;11158;53.404;-1.510;2022-10-13T01:00:32;14.52;;;3.53;;
21987;SDS011;11158;53.404;-1.510;2022-10-13T01:03:00;10.60;;;3.90;;
21987;SDS011;11158;53.404;-1.510;2022-10-13T01:05:26;10.63;;;3.00;;
21987;SDS011;11158;53.404;-1.510;2022-10-13T01:07:53;10.50;;;3.58;;
21987;SDS011;11158;53.404;-1.510;2022-10-13T01:18:55;14.30;;;4.07;;
21987;SDS011;11158;53.404;-1.510;2022-10-13T01:40:43;10.07;;;3.20;;
21987;SDS011;11158;53.404;-1.510;2022-10-13T01:43:15;8.75;;;3.85;;
21987;SDS011;11158;53.404;-1.510;2022-10-13T01:48:25;7.38;;;3.00;;
21987;SDS011;11158;53.404;-1.510;2022-10-13T01:50:54;13.70;;;3.47;;
21987;SDS011;11158;53.404;-1.510;2022-10-13T01:53:21;10.68;;;3.17;;
21987;SDS011;11158;53.404;-1.510;2022-10-13T01:55:51;7.45;;;2.88;;
21987;SDS011;11158;53.404;-1.510;2022-10-13T02:00:57;4.35;;;2.10;;
21987;SDS011;11158;53.404;-1.510;2022-10-13T02:06:14;10.60;;;2.80;;
21987;SDS011;11158;53.404;-1.510;2022-10-13T02:08:50;8.23;;;2.13;;
21987;SDS011;11158;53.404;-1.510;2022-10-13T02:11:27;9.73;;;2.22;;
21987;SDS011;11158;53.404;-1.510;2022-10-13T02:13:56;8.63;;;2.33;;
21987;SDS011;11158;53.404;-1.510;2022-10-13T02:16:23;9.52;;;2.30;;
21987;SDS011;11158;53.404;-1.510;2022-10-13T02:18:52;6.93;;;2.15;;
21987;SDS011;11158;53.404;-1.510;2022-10-13T02:21:21;10.43;;;2.15;;
21987;SDS011;11158;53.404;-1.510;2022-10-13T02:23:47;9.65;;;1.92;;
21987;SDS011;11158;53.404;-1.510;2022-10-13T02:26:13;7.18;;;2.03;;
21987;SDS011;11158;53.404;-1.510;2022-10-13T02:28:39;4.88;;;1.60;;
21987;SDS011;11158;53.404;-1.510;2022-10-13T02:31:06;7.70;;;2.13;;
21987;SDS011;11158;53.404;-1.510;2022-10-13T02:33:33;6.97;;;1.80;;
21987;SDS011;11158;53.404;-1.510;2022-10-13T02:35:58;6.88;;;1.63;;
21987;SDS011;11158;53.404;-1.510;2022-10-13T02:38:24;4.40;;;1.60;;
21987;SDS011;11158;53.404;-1.510;2022-10-13T02:40:50;10.93;;;2.08;;
21987;SDS011;11158;53.404;-1.510;2022-10-13T02:43:15;7.43;;;1.85;;
21987;SDS011;11158;53.404;-1.510;2022-10-13T02:45:41;4.70;;;1.25;;
21987;SDS011;11158;53.404;-1.510;2022-10-13T02:48:07;4.22;;;1.40;;
21987;SDS011;11158;53.404;-1.510;2022-10-13T02:50:33;5.53;;;1.85;;
21987;SDS011;11158;53.404;-1.510;2022-10-13T02:52:59;6.25;;;1.80;;
21987;SDS011;11158;53.404;-1.510;2022-10-13T02:55:24;9.48;;;2.28;;
21987;SDS011;11158;53.404;-1.510;2022-10-13T02:57:50;3.28;;;1.27;;
21987;SDS011;11158;53.404;-1.510;2022-10-13T03:00:16;5.85;;;1.55;;
21987;SDS011;11158;53.404;-1.510;2022-10-13T03:02:41;9.05;;;2.17;;
21987;SDS011;11158;53.404;-1.510;2022-10-13T03:05:08;6.50;;;1.77;;
21987;SDS011;11158;53.404;-1.510;2022-10-13T03:07:34;9.15;;;2.42;;
21987;SDS011;11158;53.404;-1.510;2022-10-13T03:10:00;9.25;;;1.85;;
21987;SDS011;11158;53.404;-1.510;2022-10-13T03:12:26;7.35;;;1.63;;
21987;SDS011;11158;53.404;-1.510;2022-10-13T03:14:52;6.97;;;1.73;;
21987;SDS011;11158;53.404;-1.510;2022-10-13T03:17:17;7.70;;;1.50;;
21987;SDS011;11158;53.404;-1.510;2022-10-13T03:19:43;8.75;;;1.70;;
21987;SDS011;11158;53.404;-1.510;2022-10-13T03:22:10;6.72;;;1.92;;
21987;SDS011;11158;53.404;-1.510;2022-10-13T03:24:38;4.05;;;1.70;;
21987;SDS011;11158;53.404;-1.510;2022-10-13T03:27:04;8.73;;;2.10;;
21987;SDS011;11158;53.404;-1.510;2022-10-13T03:29:30;6.72;;;2.08;;
21987;SDS011;11158;53.404;-1.510;2022-10-13T03:31:56;6.55;;;1.58;;
21987;SDS011;11158;53.404;-1.510;2022-10-13T03:34:21;12.25;;;1.98;;
21987;SDS011;11158;53.404;-1.510;2022-10-13T03:36:47;4.95;;;1.50;;
21987;SDS011;11158;53.404;-1.510;2022-10-13T03:39:13;7.72;;;1.50;;
21987;SDS011;11158;53.404;-1.510;2022-10-13T03:41:39;5.38;;;1.30;;
21987;SDS011;11158;53.404;-1.510;2022-10-13T03:44:05;6.82;;;1.88;;
21987;SDS011;11158;53.404;-1.510;2022-10-13T03:46:31;5.63;;;1.80;;
21987;SDS011;11158;53.404;-1.510;2022-10-13T03:48:57;6.53;;;1.80;;
21987;SDS011;11158;53.404;-1.510;2022-10-13T03:51:23;9.20;;;1.80;;
21987;SDS011;11158;53.404;-1.510;2022-10-13T03:53:50;8.95;;;1.80;;
21987;SDS011;11158;53.404;-1.510;2022-10-13T03:56:18;5.55;;;2.10;;
21987;SDS011;11158;53.404;-1.510;2022-10-13T03:58:45;2.65;;;1.38;;
21987;SDS011;11158;53.404;-1.510;2022-10-13T04:01:11;7.32;;;1.70;;
21987;SDS011;11158;53.404;-1.510;2022-10-13T04:03:40;8.98;;;1.80;;
21987;SDS011;11158;53.404;-1.510;2022-10-13T04:06:08;5.05;;;1.70;;
21987;SDS011;11158;53.404;-1.510;2022-10-13T04:08:34;7.38;;;1.50;;
21987;SDS011;11158;53.404;-1.510;2022-10-13T04:11:02;4.80;;;1.73;;
21987;SDS011;11158;53.404;-1.510;2022-10-13T04:13:30;3.75;;;1.80;;
21987;SDS011;11158;53.404;-1.510;2022-10-13T04:16:03;7.13;;;2.17;;
21987;SDS011;11158;53.404;-1.510;2022-10-13T04:18:32;9.40;;;2.00;;
21987;SDS011;11158;53.404;-1.510;2022-10-13T04:20:58;7.90;;;1.77;;
21987;SDS011;11158;53.404;-1.510;2022-10-13T04:23:24;7.15;;;1.50;;
21987;SDS011;11158;53.404;-1.510;2022-10-13T04:25:50;9.13;;;1.90;;
21987;SDS011;11158;53.404;-1.510;2022-10-13T04:28:15;5.25;;;1.77;;
21987;SDS011;11158;53.404;-1.510;2022-10-13T04:30:41;3.97;;;1.60;;
21987;SDS011;11158;53.404;-1.510;2022-10-13T04:33:07;6.25;;;1.50;;
21987;SDS011;11158;53.404;-1.510;2022-10-13T04:35:33;2.97;;;1.38;;
21987;SDS011;11158;53.404;-1.510;2022-10-13T04:37:58;4.40;;;1.38;;
21987;SDS011;11158;53.404;-1.510;2022-10-13T04:40:25;2.33;;;1.45;;
21987;SDS011;11158;53.404;-1.510;2022-10-13T04:42:50;9.07;;;2.00;;
21987;SDS011;11158;53.404;-1.510;2022-10-13T04:45:16;4.93;;;1.67;;
21987;SDS011;11158;53.404;-1.510;2022-10-13T04:47:43;9.00;;;1.90;;
21987;SDS011;11158;53.404;-1.510;2022-10-13T04:50:08;5.50;;;1.67;;
21987;SDS011;11158;53.404;-1.510;2022-10-13T04:52:35;9.25;;;1.88;;
21987;SDS011;11158;53.404;-1.510;2022-10-13T04:55:00;4.70;;;1.52;;
21987;SDS011;11158;53.404;-1.510;2022-10-13T04:57:28;4.25;;;1.70;;
21987;SDS011;11158;53.404;-1.510;2022-10-13T04:59:53;3.58;;;1.50;;
21987;SDS011;11158;53.404;-1.510;2022-10-13T05:02:19;5.13;;;1.83;;
21987;SDS011;11158;53.404;-1.510;2022-10-13T05:04:45;4.45;;;1.58;;
21987;SDS011;11158;53.404;-1.510;2022-10-13T05:07:10;4.80;;;1.58;;
21987;SDS011;11158;53.404;-1.510;2022-10-13T05:09:36;5.97;;;1.92;;
21987;SDS011;11158;53.404;-1.510;2022-10-13T05:12:01;7.18;;;2.88;;
21987;SDS011;11158;53.404;-1.510;2022-10-13T05:14:27;5.15;;;1.67;;
21987;SDS011;11158;53.404;-1.510;2022-10-13T05:16:55;4.47;;;1.90;;
21987;SDS011;11158;53.404;-1.510;2022-10-13T05:19:20;9.85;;;1.67;;
21987;SDS011;11158;53.404;-1.510;2022-10-13T05:21:47;4.22;;;1.60;;
21987;SDS011;11158;53.404;-1.510;2022-10-13T05:24:14;5.80;;;2.03;;
21987;SDS011;11158;53.404;-1.510;2022-10-13T05:26:41;3.95;;;1.80;;
21987;SDS011;11158;53.404;-1.510;2022-10-13T05:29:07;7.50;;;2.00;;
21987;SDS011;11158;53.404;-1.510;2022-10-13T05:31:34;6.28;;;1.73;;
21987;SDS011;11158;53.404;-1.510;2022-10-13T05:34:00;6.88;;;1.92;;
21987;SDS011;11158;53.404;-1.510;2022-10-13T05:36:28;5.85;;;1.98;;
21987;SDS011;11158;53.404;-1.510;2022-10-13T05:38:59;4.03;;;1.60;;
21987;SDS011;11158;53.404;-1.510;2022-10-13T05:41:27;3.42;;;1.92;;
21987;SDS011;11158;53.404;-1.510;2022-10-13T05:43:54;8.77;;;4.65;;
21987;SDS011;11158;53.404;-1.510;2022-10-13T05:46:23;6.53;;;1.63;;
21987;SDS011;11158;53.404;-1.510;2022-10-13T05:48:49;7.65;;;1.98;;
21987;SDS011;11158;53.404;-1.510;2022-10-13T05:51:17;8.20;;;2.45;;
21987;SDS011;11158;53.404;-1.510;2022-10-13T05:53:48;7.70;;;1.93;;
21987;SDS011;11158;53.404;-1.510;2022-10-13T05:56:18;8.27;;;1.92;;
21987;SDS011;11158;53.404;-1.510;2022-10-13T05:58:48;5.68;;;1.73;;
21987;SDS011;11158;53.404;-1.510;2022-10-13T06:01:19;8.05;;;1.70;;
21987;SDS011;11158;53.404;-1.510;2022-10-13T06:03:48;8.27;;;2.10;;
21987;SDS011;11158;53.404;-1.510;2022-10-13T06:06:16;3.80;;;1.75;;
21987;SDS011;11158;53.404;-1.510;2022-10-13T06:08:42;5.32;;;1.60;;
21987;SDS011;11158;53.404;-1.510;2022-10-13T06:11:08;7.97;;;1.70;;
21987;SDS011;11158;53.404;-1.510;2022-10-13T06:13:34;6.55;;;1.52;;
21987;SDS011;11158;53.404;-1.510;2022-10-13T06:16:00;10.88;;;2.13;;
21987;SDS011;11158;53.404;-1.510;2022-10-13T06:18:26;6.93;;;2.30;;
21987;SDS011;11158;53.404;-1.510;2022-10-13T06:20:52;4.72;;;1.80;;
21987;SDS011;11158;53.404;-1.510;2022-10-13T06:23:18;5.45;;;1.70;;
21987;SDS011;11158;53.404;-1.510;2022-10-13T06:25:47;3.85;;;1.42;;
21987;SDS011;11158;53.404;-1.510;2022-10-13T06:28:17;5.80;;;1.60;;
21987;SDS011;11158;53.404;-1.510;2022-10-13T06:30:47;9.48;;;2.10;;
21987;SDS011;11158;53.404;-1.510;2022-10-13T06:33:19;6.72;;;1.52;;
21987;SDS011;11158;53.404;-1.510;2022-10-13T06:35:45;4.78;;;1.30;;
21987;SDS011;11158;53.404;-1.510;2022-10-13T06:38:10;5.28;;;1.70;;
21987;SDS011;11158;53.404;-1.510;2022-10-13T06:40:37;4.18;;;1.50;;
21987;SDS011;11158;53.404;-1.510;2022-10-13T06:43:02;8.75;;;1.70;;
21987;SDS011;11158;53.404;-1.510;2022-10-13T06:45:29;5.60;;;1.60;;
21987;SDS011;11158;53.404;-1.510;2022-10-13T06:47:54;4.38;;;1.30;;
21987;SDS011;11158;53.404;-1.510;2022-10-13T06:50:23;5.88;;;1.70;;
21987;SDS011;11158;53.404;-1.510;2022-10-13T06:52:49;5.60;;;1.50;;
21987;SDS011;11158;53.404;-1.510;2022-10-13T06:55:18;8.95;;;1.67;;
21987;SDS011;11158;53.404;-1.510;2022-10-13T06:57:44;9.10;;;2.00;;
21987;SDS011;11158;53.404;-1.510;2022-10-13T07:00:09;5.47;;;1.60;;
21987;SDS011;11158;53.404;-1.510;2022-10-13T07:02:37;7.70;;;1.50;;
21987;SDS011;11158;53.404;-1.510;2022-10-13T07:05:02;9.10;;;1.88;;
21987;SDS011;11158;53.404;-1.510;2022-10-13T07:07:28;5.45;;;1.83;;
21987;SDS011;11158;53.404;-1.510;2022-10-13T07:09:54;8.20;;;2.17;;
21987;SDS011;11158;53.404;-1.510;2022-10-13T07:12:20;4.75;;;1.60;;
21987;SDS011;11158;53.404;-1.510;2022-10-13T07:14:46;6.13;;;2.05;;
21987;SDS011;11158;53.404;-1.510;2022-10-13T07:17:13;8.02;;;1.70;;
21987;SDS011;11158;53.404;-1.510;2022-10-13T07:19:38;8.40;;;2.35;;
21987;SDS011;11158;53.404;-1.510;2022-10-13T07:22:04;8.10;;;1.80;;
21987;SDS011;11158;53.404;-1.510;2022-10-13T07:24:30;4.45;;;1.50;;
21987;SDS011;11158;53.404;-1.510;2022-10-13T07:26:56;5.63;;;1.52;;
21987;SDS011;11158;53.404;-1.510;2022-10-13T07:29:22;4.53;;;1.38;;
21987;SDS011;11158;53.404;-1.510;2022-10-13T07:31:48;8.10;;;1.70;;
21987;SDS011;11158;53.404;-1.510;2022-10-13T07:34:13;6.40;;;1.52;;
21987;SDS011;11158;53.404;-1.510;2022-10-13T07:36:40;6.53;;;1.40;;
21987;SDS011;11158;53.404;-1.510;2022-10-13T07:39:06;5.60;;;1.45;;
21987;SDS011;11158;53.404;-1.510;2022-10-13T07:41:32;10.85;;;2.22;;
21987;SDS011;11158;53.404;-1.510;2022-10-13T07:43:58;6.57;;;1.48;;
21987;SDS011;11158;53.404;-1.510;2022-10-13T07:46:24;7.43;;;1.98;;
21987;SDS011;11158;53.404;-1.510;2022-10-13T07:48:51;5.53;;;1.50;;
21987;SDS011;11158;53.404;-1.510;2022-10-13T07:51:18;7.80;;;1.90;;
21987;SDS011;11158;53.404;-1.510;2022-10-13T07:53:44;7.55;;;1.70;;
21987;SDS011;11158;53.404;-1.510;2022-10-13T07:56:11;6.60;;;1.90;;
21987;SDS011;11158;53.404;-1.510;2022-10-13T07:58:38;6.78;;;1.40;;
21987;SDS011;11158;53.404;-1.510;2022-10-13T08:01:06;8.02;;;2.95;;
21987;SDS011;11158;53.404;-1.510;2022-10-13T08:03:32;3.53;;;1.55;;
21987;SDS011;11158;53.404;-1.510;2022-10-13T08:05:59;5.50;;;1.67;;
21987;SDS011;11158;53.404;-1.510;2022-10-13T08:08:26;2.55;;;1.40;;
21987;SDS011;11158;53.404;-1.510;2022-10-13T08:10:52;4.57;;;1.52;;
21987;SDS011;11158;53.404;-1.510;2022-10-13T08:13:18;5.03;;;1.63;;
21987;SDS011;11158;53.404;-1.510;2022-10-13T08:15:44;7.20;;;2.22;;
21987;SDS011;11158;53.404;-1.510;2022-10-13T08:18:11;4.30;;;1.38;;
21987;SDS011;11158;53.404;-1.510;2022-10-13T08:20:39;5.80;;;1.35;;
21987;SDS011;11158;53.404;-1.510;2022-10-13T08:23:06;4.93;;;1.08;;
21987;SDS011;11158;53.404;-1.510;2022-10-13T08:25:35;5.03;;;1.35;;
21987;SDS011;11158;53.404;-1.510;2022-10-13T08:28:05;6.28;;;1.27;;
21987;SDS011;11158;53.404;-1.510;2022-10-13T08:30:40;5.85;;;1.27;;
21987;SDS011;11158;53.404;-1.510;2022-10-13T08:33:05;3.08;;;1.63;;
21987;SDS011;11158;53.404;-1.510;2022-10-13T08:35:31;6.20;;;1.70;;
21987;SDS011;11158;53.404;-1.510;2022-10-13T08:37:57;5.00;;;1.27;;
21987;SDS011;11158;53.404;-1.510;2022-10-13T08:40:23;6.57;;;1.30;;
21987;SDS011;11158;53.404;-1.510;2022-10-13T08:42:49;6.00;;;1.50;;
21987;SDS011;11158;53.404;-1.510;2022-10-13T08:45:20;4.30;;;1.30;;
21987;SDS011;11158;53.404;-1.510;2022-10-13T08:47:55;5.90;;;1.30;;
21987;SDS011;11158;53.404;-1.510;2022-10-13T08:50:32;9.20;;;1.80;;
21987;SDS011;11158;53.404;-1.510;2022-10-13T08:53:06;3.40;;;1.35;;
21987;SDS011;11158;53.404;-1.510;2022-10-13T08:55:41;6.30;;;1.30;;
21987;SDS011;11158;53.404;-1.510;2022-10-13T08:58:18;6.32;;;1.45;;
21987;SDS011;11158;53.404;-1.510;2022-10-13T09:00:47;4.82;;;1.42;;
21987;SDS011;11158;53.404;-1.510;2022-10-13T09:03:18;4.13;;;1.95;;
21987;SDS011;11158;53.404;-1.510;2022-10-13T09:05:53;6.90;;;2.10;;
21987;SDS011;11158;53.404;-1.510;2022-10-13T09:08:25;7.40;;;2.15;;
21987;SDS011;11158;53.404;-1.510;2022-10-13T09:10:56;5.57;;;1.60;;
21987;SDS011;11158;53.404;-1.510;2022-10-13T09:13:23;7.88;;;2.05;;
21987;SDS011;11158;53.404;-1.510;2022-10-13T09:15:51;10.88;;;2.50;;
21987;SDS011;11158;53.404;-1.510;2022-10-13T09:18:17;9.95;;;2.47;;
21987;SDS011;11158;53.404;-1.510;2022-10-13T09:20:51;6.78;;;2.05;;
21987;SDS011;11158;53.404;-1.510;2022-10-13T09:23:34;5.95;;;2.20;;
21987;SDS011;11158;53.404;-1.510;2022-10-13T09:26:00;5.13;;;2.10;;
21987;SDS011;11158;53.404;-1.510;2022-10-13T09:28:32;10.35;;;2.55;;
21987;SDS011;11158;53.404;-1.510;2022-10-13T09:33:38;6.30;;;2.08;;
21987;SDS011;11158;53.404;-1.510;2022-10-13T09:36:05;8.50;;;2.85;;
21987;SDS011;11158;53.404;-1.510;2022-10-13T09:43:33;9.57;;;2.03;;
21987;SDS011;11158;53.404;-1.510;2022-10-13T09:46:01;7.32;;;2.10;;
21987;SDS011;11158;53.404;-1.510;2022-10-13T09:48:35;12.93;;;1.95;;
21987;SDS011;11158;53.404;-1.510;2022-10-13T09:51:02;6.68;;;1.92;;
21987;SDS011;11158;53.404;-1.510;2022-10-13T09:53:38;10.13;;;1.90;;
21987;SDS011;11158;53.404;-1.510;2022-10-13T09:56:48;9.10;;;2.20;;
21987;SDS011;11158;53.404;-1.510;2022-10-13T10:01:46;5.53;;;1.83;;
21987;SDS011;11158;53.404;-1.510;2022-10-13T10:04:15;15.93;;;2.33;;
21987;SDS011;11158;53.404;-1.510;2022-10-13T10:06:48;7.18;;;2.00;;
21987;SDS011;11158;53.404;-1.510;2022-10-13T10:11:46;11.45;;;2.53;;
21987;SDS011;11158;53.404;-1.510;2022-10-13T10:14:26;9.00;;;2.25;;
21987;SDS011;11158;53.404;-1.510;2022-10-13T10:22:43;5.93;;;2.00;;
21987;SDS011;11158;53.404;-1.510;2022-10-13T10:25:19;6.55;;;2.00;;
21987;SDS011;11158;53.404;-1.510;2022-10-13T10:36:10;8.95;;;1.90;;
21987;SDS011;11158;53.404;-1.510;2022-10-13T10:38:46;11.95;;;2.30;;
21987;SDS011;11158;53.404;-1.510;2022-10-13T10:44:06;9.48;;;2.25;;
21987;SDS011;11158;53.404;-1.510;2022-10-13T10:46:35;7.30;;;1.58;;
21987;SDS011;11158;53.404;-1.510;2022-10-13T10:49:11;8.00;;;2.00;;
21987;SDS011;11158;53.404;-1.510;2022-10-13T10:51:42;4.07;;;1.30;;
21987;SDS011;11158;53.404;-1.510;2022-10-13T10:57:01;5.03;;;1.88;;
21987;SDS011;11158;53.404;-1.510;2022-10-13T10:59:55;9.82;;;1.95;;
21987;SDS011;11158;53.404;-1.510;2022-10-13T11:08:29;3.45;;;1.58;;
21987;SDS011;11158;53.404;-1.510;2022-10-13T11:13:50;6.40;;;1.70;;
21987;SDS011;11158;53.404;-1.510;2022-10-13T11:24:53;7.00;;;1.90;;
21987;SDS011;11158;53.404;-1.510;2022-10-13T11:29:58;6.57;;;1.75;;
21987;SDS011;11158;53.404;-1.510;2022-10-13T11:37:39;5.13;;;1.75;;
21987;SDS011;11158;53.404;-1.510;2022-10-13T11:51:23;4.38;;;1.65;;
21987;SDS011;11158;53.404;-1.510;2022-10-13T11:57:19;9.48;;;1.67;;
21987;SDS011;11158;53.404;-1.510;2022-10-13T11:59:51;5.10;;;1.73;;
21987;SDS011;11158;53.404;-1.510;2022-10-13T12:02:20;4.45;;;1.50;;
21987;SDS011;11158;53.404;-1.510;2022-10-13T12:07:35;6.55;;;1.67;;
21987;SDS011;11158;53.404;-1.510;2022-10-13T12:10:06;5.72;;;1.80;;
21987;SDS011;11158;53.404;-1.510;2022-10-13T12:12:44;4.88;;;1.73;;
21987;SDS011;11158;53.404;-1.510;2022-10-13T12:15:27;7.38;;;1.88;;
21987;SDS011;11158;53.404;-1.510;2022-10-13T12:17:56;9.52;;;1.60;;
21987;SDS011;11158;53.404;-1.510;2022-10-13T12:20:23;6.28;;;1.50;;
21987;SDS011;11158;53.404;-1.510;2022-10-13T12:22:51;6.63;;;2.00;;
21987;SDS011;11158;53.404;-1.510;2022-10-13T12:25:18;7.25;;;1.50;;
21987;SDS011;11158;53.404;-1.510;2022-10-13T12:27:54;6.57;;;1.63;;
21987;SDS011;11158;53.404;-1.510;2022-10-13T12:30:29;7.25;;;1.80;;
21987;SDS011;11158;53.404;-1.510;2022-10-13T12:33:02;9.43;;;1.80;;
21987;SDS011;11158;53.404;-1.510;2022-10-13T12:35:39;8.18;;;2.00;;
21987;SDS011;11158;53.404;-1.510;2022-10-13T12:38:05;9.27;;;1.83;;
21987;SDS011;11158;53.404;-1.510;2022-10-13T12:40:38;8.38;;;1.80;;
21987;SDS011;11158;53.404;-1.510;2022-10-13T12:43:04;6.60;;;1.45;;
21987;SDS011;11158;53.404;-1.510;2022-10-13T12:45:32;4.85;;;1.60;;
21987;SDS011;11158;53.404;-1.510;2022-10-13T12:47:59;6.53;;;1.65;;
21987;SDS011;11158;53.404;-1.510;2022-10-13T12:53:13;5.28;;;1.75;;
21987;SDS011;11158;53.404;-1.510;2022-10-13T12:55:50;5.22;;;1.67;;
21987;SDS011;11158;53.404;-1.510;2022-10-13T12:58:30;11.73;;;1.88;;
21987;SDS011;11158;53.404;-1.510;2022-10-13T13:03:31;10.70;;;2.17;;
21987;SDS011;11158;53.404;-1.510;2022-10-13T13:09:06;6.22;;;1.75;;
21987;SDS011;11158;53.404;-1.510;2022-10-13T13:11:43;5.70;;;1.45;;
21987;SDS011;11158;53.404;-1.510;2022-10-13T13:14:22;7.20;;;1.70;;
21987;SDS011;11158;53.404;-1.510;2022-10-13T13:19:47;6.53;;;1.80;;
21987;SDS011;11158;53.404;-1.510;2022-10-13T13:22:16;7.97;;;1.80;;
21987;SDS011;11158;53.404;-1.510;2022-10-13T13:24:42;6.88;;;1.80;;
21987;SDS011;11158;53.404;-1.510;2022-10-13T13:27:15;8.02;;;1.83;;
21987;SDS011;11158;53.404;-1.510;2022-10-13T13:29:43;6.18;;;1.92;;
21987;SDS011;11158;53.404;-1.510;2022-10-13T13:32:13;5.18;;;1.80;;
21987;SDS011;11158;53.404;-1.510;2022-10-13T13:34:41;8.13;;;2.33;;
21987;SDS011;11158;53.404;-1.510;2022-10-13T13:37:22;4.35;;;1.50;;
21987;SDS011;11158;53.404;-1.510;2022-10-13T13:39:56;4.43;;;1.67;;
21987;SDS011;11158;53.404;-1.510;2022-10-13T13:42:23;7.60;;;1.70;;
21987;SDS011;11158;53.404;-1.510;2022-10-13T13:44:50;7.35;;;1.70;;
21987;SDS011;11158;53.404;-1.510;2022-10-13T13:47:17;6.22;;;1.98;;
21987;SDS011;11158;53.404;-1.510;2022-10-13T13:49:48;5.10;;;1.85;;
21987;SDS011;11158;53.404;-1.510;2022-10-13T13:52:15;8.27;;;2.47;;
21987;SDS011;11158;53.404;-1.510;2022-10-13T13:54:42;5.35;;;1.90;;
21987;SDS011;11158;53.404;-1.510;2022-10-13T13:57:09;6.35;;;2.00;;
21987;SDS011;11158;53.404;-1.510;2022-10-13T13:59:36;4.95;;;1.58;;
21987;SDS011;11158;53.404;-1.510;2022-10-13T14:02:02;6.45;;;1.75;;
21987;SDS011;11158;53.404;-1.510;2022-10-13T14:04:28;6.15;;;1.65;;
21987;SDS011;11158;53.404;-1.510;2022-10-13T14:06:54;6.70;;;1.70;;
21987;SDS011;11158;53.404;-1.510;2022-10-13T14:09:20;8.57;;;1.48;;
21987;SDS011;11158;53.404;-1.510;2022-10-13T14:11:46;6.70;;;1.65;;
21987;SDS011;11158;53.404;-1.510;2022-10-13T14:14:12;4.90;;;1.58;;
21987;SDS011;11158;53.404;-1.510;2022-10-13T14:16:37;5.90;;;1.90;;
21987;SDS011;11158;53.404;-1.510;2022-10-13T14:19:05;6.05;;;1.67;;
21987;SDS011;11158;53.404;-1.510;2022-10-13T14:21:32;5.55;;;1.35;;
21987;SDS011;11158;53.404;-1.510;2022-10-13T14:23:58;6.95;;;1.63;;
21987;SDS011;11158;53.404;-1.510;2022-10-13T14:26:23;4.75;;;2.08;;
21987;SDS011;11158;53.404;-1.510;2022-10-13T14:28:49;7.57;;;1.75;;
21987;SDS011;11158;53.404;-1.510;2022-10-13T14:31:15;6.00;;;1.77;;
21987;SDS011;11158;53.404;-1.510;2022-10-13T14:33:40;8.90;;;1.95;;
21987;SDS011;11158;53.404;-1.510;2022-10-13T14:36:06;11.23;;;2.17;;
21987;SDS011;11158;53.404;-1.510;2022-10-13T14:38:33;8.63;;;2.17;;
21987;SDS011;11158;53.404;-1.510;2022-10-13T14:41:02;5.63;;;1.60;;
21987;SDS011;11158;53.404;-1.510;2022-10-13T14:43:30;6.30;;;2.50;;
21987;SDS011;11158;53.404;-1.510;2022-10-13T14:46:00;6.35;;;1.98;;
21987;SDS011;11158;53.404;-1.510;2022-10-13T14:48:30;5.93;;;1.70;;
21987;SDS011;11158;53.404;-1.510;2022-10-13T14:50:57;4.85;;;1.48;;
21987;SDS011;11158;53.404;-1.510;2022-10-13T14:53:23;4.45;;;1.50;;
21987;SDS011;11158;53.404;-1.510;2022-10-13T14:55:51;7.03;;;1.88;;
21987;SDS011;11158;53.404;-1.510;2022-10-13T14:58:17;8.15;;;1.52;;
21987;SDS011;11158;53.404;-1.510;2022-10-13T15:00:43;6.28;;;1.40;;
21987;SDS011;11158;53.404;-1.510;2022-10-13T15:03:09;6.15;;;1.88;;
21987;SDS011;11158;53.404;-1.510;2022-10-13T15:05:35;7.47;;;1.92;;
21987;SDS011;11158;53.404;-1.510;2022-10-13T15:08:00;4.43;;;1.55;;
21987;SDS011;11158;53.404;-1.510;2022-10-13T15:10:26;6.68;;;1.70;;
21987;SDS011;11158;53.404;-1.510;2022-10-13T15:12:52;5.20;;;1.15;;
21987;SDS011;11158;53.404;-1.510;2022-10-13T15:15:17;6.93;;;1.70;;
21987;SDS011;11158;53.404;-1.510;2022-10-13T15:17:44;7.25;;;1.80;;
21987;SDS011;11158;53.404;-1.510;2022-10-13T15:20:10;5.70;;;1.88;;
21987;SDS011;11158;53.404;-1.510;2022-10-13T15:22:37;8.82;;;1.80;;
21987;SDS011;11158;53.404;-1.510;2022-10-13T15:25:03;4.60;;;1.70;;
21987;SDS011;11158;53.404;-1.510;2022-10-13T15:27:32;6.68;;;1.80;;
21987;SDS011;11158;53.404;-1.510;2022-10-13T15:29:59;11.23;;;1.98;;
21987;SDS011;11158;53.404;-1.510;2022-10-13T15:32:25;8.85;;;2.15;;
21987;SDS011;11158;53.404;-1.510;2022-10-13T15:34:50;7.55;;;1.92;;
21987;SDS011;11158;53.404;-1.510;2022-10-13T15:37:16;8.02;;;1.95;;
21987;SDS011;11158;53.404;-1.510;2022-10-13T15:39:42;4.97;;;2.03;;
21987;SDS011;11158;53.404;-1.510;2022-10-13T15:42:08;8.45;;;2.40;;
21987;SDS011;11158;53.404;-1.510;2022-10-13T15:44:35;7.40;;;2.63;;
21987;SDS011;11158;53.404;-1.510;2022-10-13T15:47:01;5.55;;;2.35;;
21987;SDS011;11158;53.404;-1.510;2022-10-13T15:49:27;6.13;;;2.38;;
21987;SDS011;11158;53.404;-1.510;2022-10-13T15:51:53;7.88;;;2.35;;
21987;SDS011;11158;53.404;-1.510;2022-10-13T15:54:19;5.82;;;2.30;;
21987;SDS011;11158;53.404;-1.510;2022-10-13T15:56:46;5.57;;;2.38;;
21987;SDS011;11158;53.404;-1.510;2022-10-13T15:59:12;5.65;;;2.22;;
21987;SDS011;11158;53.404;-1.510;2022-10-13T16:01:38;5.60;;;2.30;;
21987;SDS011;11158;53.404;-1.510;2022-10-13T16:04:03;8.55;;;2.72;;
21987;SDS011;11158;53.404;-1.510;2022-10-13T16:06:29;6.82;;;2.25;;
21987;SDS011;11158;53.404;-1.510;2022-10-13T16:08:55;6.47;;;2.40;;
21987;SDS011;11158;53.404;-1.510;2022-10-13T16:11:21;6.25;;;2.20;;
21987;SDS011;11158;53.404;-1.510;2022-10-13T16:13:48;6.88;;;2.60;;
21987;SDS011;11158;53.404;-1.510;2022-10-13T16:16:15;10.70;;;2.88;;
21987;SDS011;11158;53.404;-1.510;2022-10-13T16:18:42;4.80;;;2.75;;
21987;SDS011;11158;53.404;-1.510;2022-10-13T16:21:10;7.50;;;3.00;;
21987;SDS011;11158;53.404;-1.510;2022-10-13T16:23:40;7.53;;;2.70;;
21987;SDS011;11158;53.404;-1.510;2022-10-13T16:26:06;10.05;;;2.97;;
21987;SDS011;11158;53.404;-1.510;2022-10-13T16:28:36;6.65;;;2.53;;
21987;SDS011;11158;53.404;-1.510;2022-10-13T16:31:09;6.82;;;2.85;;
21987;SDS011;11158;53.404;-1.510;2022-10-13T16:33:37;4.15;;;2.13;;
21987;SDS011;11158;53.404;-1.510;2022-10-13T16:36:06;5.47;;;2.90;;
21987;SDS011;11158;53.404;-1.510;2022-10-13T16:38:34;6.47;;;2.22;;
21987;SDS011;11158;53.404;-1.510;2022-10-13T16:41:07;10.77;;;2.83;;